Time;durP1;ratioP1;P1;durP2;ratioP2;P2;SDS_P1;SDS_P2;PMS_P1;PMS_P2;Temp;Humidity;BMP_temperature;BMP_pressure;BME280_temperature;BME280_humidity;BME280_pressure;Samples;Min_cycle;Max_cycle;Signal;HPM_P1;HPM_P2
2022/09/30 00:02:03;;;;;;;;;;;;;;;24.80;44.00;93211.69;5032670;28;7064;-60
2022/09/30 00:04:32;;;;;;;;;;;;;;;24.79;43.81;93218.47;5033244;28;7233;-60
2022/09/30 00:07:04;;;;;;;;;;;;;;;24.77;43.71;93221.00;5060407;28;8298;-59
2022/09/30 00:09:41;;;;;;;;;;;;;;;24.75;44.33;93217.31;5058706;28;8898;-60
2022/09/30 00:12:11;;;;;;;;;;;;;;;24.73;44.23;93226.78;5079289;28;7286;-60
2022/09/30 00:14:40;;;;;;;;;;;;;;;24.71;44.37;93229.34;5077739;28;7207;-60
2022/09/30 00:17:08;;;;;;;;;;;;;;;24.72;44.04;93230.06;5080244;28;7331;-60
2022/09/30 00:19:37;;;;;;;;;;;;;;;24.75;44.36;93226.28;5058623;28;7376;-59
2022/09/30 00:22:09;;;;;;;;;;;;;;;24.74;44.16;93230.28;5056755;28;7602;-60
2022/09/30 00:24:52;;;;;;;;;;;;;;;24.73;44.29;93228.78;5042783;28;9052;-60
2022/09/30 00:27:25;;;;;;;;;;;;;;;24.73;43.84;93235.03;5052304;28;7108;-60
2022/09/30 00:30:20;;;;;;;;;;;;;;;24.74;43.45;93233.03;5049531;28;9025;-59
2022/09/30 00:32:46;;;;;;;;;;;;;;;24.72;44.05;93238.31;4998176;28;7438;-60
2022/09/30 00:35:21;;;;;;;;;;;;;;;24.72;44.08;93235.56;4974028;28;7673;-60
2022/09/30 00:37:49;;;;;;;;;;;;;;;24.73;44.12;93236.31;5000048;28;9479;-60
2022/09/30 00:40:17;;;;;;;;;;;;;;;24.73;43.69;93245.28;5003910;28;7083;-60
2022/09/30 00:42:47;;;;;;;;;;;;;;;24.67;44.25;93248.16;4974823;28;7165;-60
2022/09/30 00:45:13;;;;;;;;;;;;;;;24.64;43.76;93240.97;4981016;28;8755;-59
2022/09/30 00:47:44;;;;;;;;;;;;;;;24.66;44.22;93249.44;4998750;28;9007;-60
2022/09/30 00:50:28;;;;;;;;;;;;;;;24.66;44.29;93254.22;4989785;28;6936;-60
2022/09/30 00:53:29;;;;;;;;;;;;;;;24.64;43.74;93257.47;4987998;28;9136;-60
2022/09/30 00:56:24;;;;;;;;;;;;;;;24.65;44.57;93258.97;4983770;28;7335;-60
2022/09/30 00:59:11;;;;;;;;;;;;;;;24.65;44.08;93261.72;4991248;28;7804;-60
2022/09/30 01:01:41;;;;;;;;;;;;;;;24.63;44.21;93258.75;4990047;28;7380;-60
2022/09/30 01:04:14;;;;;;;;;;;;;;;24.67;43.91;93258.41;4970660;28;7588;-59
2022/09/30 01:06:41;;;;;;;;;;;;;;;24.69;44.11;93251.13;5004517;28;8934;-60
2022/09/30 01:09:10;;;;;;;;;;;;;;;24.69;43.92;93253.13;5021431;28;7074;-60
2022/09/30 01:11:44;;;;;;;;;;;;;;;24.68;43.90;93255.13;5070017;28;7032;-59
2022/09/30 01:14:21;;;;;;;;;;;;;;;24.68;43.71;93257.88;5053734;28;7415;-59
2022/09/30 01:17:17;;;;;;;;;;;;;;;24.67;44.38;93261.16;5064886;28;7326;-59
2022/09/30 01:19:46;;;;;;;;;;;;;;;24.67;44.12;93259.16;4995690;28;8154;-59
2022/09/30 01:22:15;;;;;;;;;;;;;;;24.67;44.10;93256.41;5007055;28;7348;-60
2022/09/30 01:25:36;;;;;;;;;;;;;;;24.67;43.72;93261.16;5016069;28;7029;-60
2022/09/30 01:28:30;;;;;;;;;;;;;;;24.66;44.10;93259.72;4931340;29;7650;-60
2022/09/30 01:31:44;;;;;;;;;;;;;;;24.63;43.79;93258.75;4932784;29;9571;-60
2022/09/30 01:34:58;;;;;;;;;;;;;;;24.64;43.72;93260.22;4938918;29;9013;-60
2022/09/30 01:37:53;;;;;;;;;;;;;;;24.63;44.40;93264.25;4947125;28;7160;-60
2022/09/30 01:40:25;;;;;;;;;;;;;;;24.64;44.27;93262.97;4948340;28;9375;-59
2022/09/30 01:43:06;;;;;;;;;;;;;;;24.65;43.76;93258.22;4926967;29;7326;-60
2022/09/30 01:45:35;;;;;;;;;;;;;;;24.62;44.18;93271.00;4934217;28;7270;-60
2022/09/30 01:48:25;;;;;;;;;;;;;;;24.61;44.32;93269.56;4937394;29;9086;-59
2022/09/30 01:50:51;;;;;;;;;;;;;;;24.63;43.85;93272.50;4944459;28;8750;-60
2022/09/30 01:53:44;;;;;;;;;;;;;;;24.64;43.74;93265.00;4946846;28;6987;-59
2022/09/30 01:56:28;;;;;;;;;;;;;;;24.66;43.44;93256.97;4958193;28;6948;-60
2022/09/30 01:59:06;;;;;;;;;;;;;;;24.67;44.15;93250.91;5003002;28;9524;-59
2022/09/30 02:01:51;;;;;;;;;;;;;;;24.63;43.62;93260.75;5030005;28;7080;-59
2022/09/30 02:04:49;;;;;;;;;;;;;;;24.58;43.98;93259.59;5037494;28;7101;-59
2022/09/30 02:07:33;;;;;;;;;;;;;;;24.59;44.22;93261.09;5060517;28;7482;-60
2022/09/30 02:10:06;;;;;;;;;;;;;;;24.58;44.38;93259.59;5062445;28;9419;-59
2022/09/30 02:12:37;;;;;;;;;;;;;;;24.56;44.17;93255.91;5074607;28;7345;-60
2022/09/30 02:15:18;;;;;;;;;;;;;;;24.53;44.19;93260.44;5069813;28;7398;-60
2022/09/30 02:17:49;;;;;;;;;;;;;;;24.54;43.96;93263.94;5055090;28;7174;-60
2022/09/30 02:20:30;;;;;;;;;;;;;;;24.56;44.12;93264.91;5065962;28;7690;-60
2022/09/30 02:23:10;;;;;;;;;;;;;;;24.56;44.14;93264.91;5066502;28;7582;-60
2022/09/30 02:25:53;;;;;;;;;;;;;;;24.58;44.59;93267.84;5078878;28;7965;-60
2022/09/30 02:28:29;;;;;;;;;;;;;;;24.58;44.54;93280.84;5066079;28;7087;-59
2022/09/30 02:31:02;;;;;;;;;;;;;;;24.57;43.96;93276.63;5053838;28;7268;-59
2022/09/30 02:33:41;;;;;;;;;;;;;;;24.54;43.79;93272.94;5062029;28;7328;-60
2022/09/30 02:36:29;;;;;;;;;;;;;;;24.56;44.46;93281.38;5072274;28;9089;-59
2022/09/30 02:39:09;;;;;;;;;;;;;;;24.57;44.23;93276.63;5044692;28;9762;-59
2022/09/30 02:41:53;;;;;;;;;;;;;;;24.57;44.03;93276.63;5050149;28;7583;-60
2022/09/30 02:44:27;;;;;;;;;;;;;;;24.59;44.05;93272.09;5073957;28;7309;-59
2022/09/30 02:47:01;;;;;;;;;;;;;;;24.61;43.83;93271.56;5052421;28;8760;-60
2022/09/30 02:49:34;;;;;;;;;;;;;;;24.58;43.98;93276.09;5053194;28;7087;-59
2022/09/30 02:52:19;;;;;;;;;;;;;;;24.60;43.83;93281.06;5044866;28;8206;-60
2022/09/30 02:55:05;;;;;;;;;;;;;;;24.57;44.29;93277.38;5058274;28;8324;-60
2022/09/30 02:57:49;;;;;;;;;;;;;;;24.57;43.97;93277.38;5046303;28;9107;-60
2022/09/30 03:00:16;;;;;;;;;;;;;;;24.58;44.14;93272.59;5055182;28;8414;-59
2022/09/30 03:03:06;;;;;;;;;;;;;;;24.56;44.12;93281.38;5052385;28;9318;-60
2022/09/30 03:05:52;;;;;;;;;;;;;;;24.53;44.35;93279.69;5053096;28;7321;-60
2022/09/30 03:08:36;;;;;;;;;;;;;;;24.52;44.58;93289.22;5039501;28;9725;-59
2022/09/30 03:11:18;;;;;;;;;;;;;;;24.54;44.26;93294.94;5055164;28;7277;-60
2022/09/30 03:14:12;;;;;;;;;;;;;;;24.56;43.86;93289.63;5062232;28;8988;-60
2022/09/30 03:17:18;;;;;;;;;;;;;;;24.58;43.42;93291.84;5048359;28;9041;-60
2022/09/30 03:20:07;;;;;;;;;;;;;;;24.57;43.67;93293.88;5070440;28;7202;-60
2022/09/30 03:23:20;;;;;;;;;;;;;;;24.54;43.92;93296.94;5074456;28;7176;-60
2022/09/30 03:26:07;;;;;;;;;;;;;;;24.53;43.88;93295.47;5071989;28;8944;-60
2022/09/30 03:28:49;;;;;;;;;;;;;;;24.55;44.30;93303.91;5082947;28;7211;-60
2022/09/30 03:31:28;;;;;;;;;;;;;;;24.53;44.04;93301.69;5070145;28;7144;-60
2022/09/30 03:34:26;;;;;;;;;;;;;;;24.52;43.79;93304.97;5062111;28;7017;-59
2022/09/30 03:37:18;;;;;;;;;;;;;;;24.49;44.54;93308.78;5082558;28;9151;-60
2022/09/30 03:40:37;;;;;;;;;;;;;;;24.44;44.05;93302.13;5055101;28;8547;-60
2022/09/30 03:43:24;;;;;;;;;;;;;;;24.48;44.58;93310.78;5069795;28;7111;-59
2022/09/30 03:46:10;;;;;;;;;;;;;;;24.48;43.93;93316.28;5068876;28;7340;-60
2022/09/30 03:48:41;;;;;;;;;;;;;;;24.49;43.85;93315.00;5039016;28;7180;-59
2022/09/30 03:51:08;;;;;;;;;;;;;;;24.50;44.18;93310.25;5050495;28;7261;-60
2022/09/30 03:53:41;;;;;;;;;;;;;;;24.48;43.78;93310.78;5069876;28;7192;-59
2022/09/30 03:56:33;;;;;;;;;;;;;;;24.47;44.12;93314.06;5073544;28;9104;-60
2022/09/30 03:58:59;;;;;;;;;;;;;;;24.48;43.78;93318.28;5027847;28;7404;-59
2022/09/30 04:01:25;;;;;;;;;;;;;;;24.51;44.32;93317.97;5017274;28;7233;-60
2022/09/30 04:03:55;;;;;;;;;;;;;;;24.51;43.82;93317.97;5011175;28;7244;-60
2022/09/30 04:06:40;;;;;;;;;;;;;;;24.51;44.20;93312.47;5013369;28;6989;-60
2022/09/30 04:09:08;;;;;;;;;;;;;;;24.48;43.85;93321.78;5029477;28;7019;-59
2022/09/30 04:11:36;;;;;;;;;;;;;;;24.47;43.89;93317.53;5023041;28;7079;-60
2022/09/30 04:14:02;;;;;;;;;;;;;;;24.49;44.13;93322.53;5018282;28;8925;-59
2022/09/30 04:16:29;;;;;;;;;;;;;;;24.49;43.86;93322.53;5006190;28;7263;-60
2022/09/30 04:19:07;;;;;;;;;;;;;;;24.49;44.41;93326.00;5007200;28;7036;-59
2022/09/30 04:21:47;;;;;;;;;;;;;;;24.48;44.04;93321.03;4999620;28;7073;-60
2022/09/30 04:24:13;;;;;;;;;;;;;;;24.47;44.60;93317.53;5010740;28;7096;-60
2022/09/30 04:26:57;;;;;;;;;;;;;;;24.47;44.05;93323.03;5027856;28;7204;-60
2022/09/30 04:29:55;;;;;;;;;;;;;;;24.47;43.82;93328.53;5030705;28;7095;-60
2022/09/30 04:32:24;;;;;;;;;;;;;;;24.47;43.82;93331.28;4953812;28;7403;-60
2022/09/30 04:34:59;;;;;;;;;;;;;;;24.48;44.24;93332.78;4974753;28;8051;-60
2022/09/30 04:37:54;;;;;;;;;;;;;;;24.48;44.03;93330.03;5013145;28;7325;-59
2022/09/30 04:40:48;;;;;;;;;;;;;;;24.48;44.49;93332.78;4957131;28;7342;-60
2022/09/30 04:43:18;;;;;;;;;;;;;;;24.49;44.18;93339.03;4941585;28;7287;-60
2022/09/30 04:45:47;;;;;;;;;;;;;;;24.44;44.00;93332.38;4951974;28;7363;-59
2022/09/30 04:48:15;;;;;;;;;;;;;;;24.43;44.31;93330.13;4965511;28;7065;-60
2022/09/30 04:50:43;;;;;;;;;;;;;;;24.44;44.03;93340.59;4956447;28;7360;-59
2022/09/30 04:53:13;;;;;;;;;;;;;;;24.45;44.11;93342.06;4948923;28;7226;-60
2022/09/30 04:55:58;;;;;;;;;;;;;;;24.44;44.01;93334.38;4962323;28;7216;-59
2022/09/30 04:58:25;;;;;;;;;;;;;;;24.45;43.99;93344.81;4959814;28;7139;-59
2022/09/30 05:01:06;;;;;;;;;;;;;;;24.42;44.75;93345.91;4953205;28;9038;-59
2022/09/30 05:03:38;;;;;;;;;;;;;;;24.45;44.86;93352.31;4958016;28;7306;-60
2022/09/30 05:06:08;;;;;;;;;;;;;;;24.43;44.73;93357.59;4961233;28;7242;-59
2022/09/30 05:08:36;;;;;;;;;;;;;;;24.41;44.24;93357.41;4983060;28;9059;-60
2022/09/30 05:11:16;;;;;;;;;;;;;;;24.41;44.33;93360.91;5000639;28;7798;-59
2022/09/30 05:13:43;;;;;;;;;;;;;;;24.39;44.42;93368.94;5005502;28;7143;-60
2022/09/30 05:16:12;;;;;;;;;;;;;;;24.37;44.14;93365.22;5002366;28;7270;-59
2022/09/30 05:18:40;;;;;;;;;;;;;;;24.34;44.37;93367.00;5058950;28;7710;-59
2022/09/30 05:21:07;;;;;;;;;;;;;;;24.34;44.65;93364.25;5041635;28;7290;-59
2022/09/30 05:23:38;;;;;;;;;;;;;;;24.30;44.88;93374.09;5047942;28;7158;-60
2022/09/30 05:26:13;;;;;;;;;;;;;;;24.28;44.83;93380.13;5039437;28;7066;-59
2022/09/30 05:28:40;;;;;;;;;;;;;;;24.29;44.44;93373.38;5082465;28;7278;-59
2022/09/30 05:31:09;;;;;;;;;;;;;;;24.31;44.64;93378.31;5048109;28;7233;-59
2022/09/30 05:33:38;;;;;;;;;;;;;;;24.35;44.50;93387.75;5076606;28;7137;-59
2022/09/30 05:36:12;;;;;;;;;;;;;;;24.37;44.91;93387.94;5059742;28;7212;-60
2022/09/30 05:38:49;;;;;;;;;;;;;;;24.43;44.29;93394.09;5076291;28;7267;-60
2022/09/30 05:41:54;;;;;;;;;;;;;;;24.48;44.68;93398.75;5071976;28;7831;-60
2022/09/30 05:44:20;;;;;;;;;;;;;;;24.49;44.44;93391.97;4969474;28;7400;-59
2022/09/30 05:46:48;;;;;;;;;;;;;;;24.52;44.13;93396.44;4972732;28;7217;-60
2022/09/30 05:49:14;;;;;;;;;;;;;;;24.56;43.90;93410.59;4977283;28;7069;-60
2022/09/30 05:51:40;;;;;;;;;;;;;;;24.60;44.15;93405.50;4975819;28;7455;-60
2022/09/30 05:54:15;;;;;;;;;;;;;;;24.61;43.85;93407.00;4977917;28;9184;-59
2022/09/30 05:56:51;;;;;;;;;;;;;;;24.66;43.46;93411.66;4968803;28;7036;-60
2022/09/30 05:59:18;;;;;;;;;;;;;;;24.69;43.41;93413.34;4972865;28;7235;-60
2022/09/30 06:01:54;;;;;;;;;;;;;;;24.70;43.44;93417.59;4956369;28;7022;-60
2022/09/30 06:04:42;;;;;;;;;;;;;;;24.73;43.82;93417.81;4970684;28;7742;-60
2022/09/30 06:07:08;;;;;;;;;;;;;;;24.76;43.90;93422.25;4973638;28;7414;-60
2022/09/30 06:09:34;;;;;;;;;;;;;;;24.76;43.57;93427.75;4967687;28;7198;-59
2022/09/30 06:12:00;;;;;;;;;;;;;;;24.79;43.18;93423.97;4950981;28;9397;-60
2022/09/30 06:14:28;;;;;;;;;;;;;;;24.84;43.91;93434.13;4944245;28;7550;-59
2022/09/30 06:17:30;;;;;;;;;;;;;;;24.96;42.95;93438.13;4967901;28;7326;-59
2022/09/30 06:19:57;;;;;;;;;;;;;;;25.01;42.55;93434.56;4999938;28;9319;-60
2022/09/30 06:22:25;;;;;;;;;;;;;;;25.07;42.82;93437.94;5025871;28;7282;-59
2022/09/30 06:25:09;;;;;;;;;;;;;;;25.17;42.52;93444.47;5025405;28;7177;-60
2022/09/30 06:28:00;;;;;;;;;;;;;;;25.23;42.99;93440.34;5028004;28;9680;-60
2022/09/30 06:30:35;;;;;;;;;;;;;;;25.29;42.24;93440.25;4996161;28;7886;-60
2022/09/30 06:33:41;;;;;;;;;;;;;;;25.35;41.71;93444.38;4988228;28;7214;-60
2022/09/30 06:36:07;;;;;;;;;;;;;;;25.39;42.00;93449.53;4934985;28;9158;-60
2022/09/30 06:38:53;;;;;;;;;;;;;;;25.44;42.26;93434.94;4940113;28;9154;-60
2022/09/30 06:41:30;;;;;;;;;;;;;;;25.47;42.27;93449.66;4949188;28;8022;-59
2022/09/30 06:44:05;;;;;;;;;;;;;;;25.50;41.58;93446.59;4950500;28;7111;-60
2022/09/30 06:46:31;;;;;;;;;;;;;;;25.51;41.69;93448.06;4943823;28;7188;-59
2022/09/30 06:48:58;;;;;;;;;;;;;;;25.54;41.74;93444.25;4934846;28;7191;-59
2022/09/30 06:51:25;;;;;;;;;;;;;;;25.59;42.06;93446.16;4949656;28;8970;-60
2022/09/30 06:54:08;;;;;;;;;;;;;;;25.60;41.39;93447.59;4973705;28;7260;-60
2022/09/30 06:56:49;;;;;;;;;;;;;;;25.62;41.56;93450.56;5010188;28;8546;-59
2022/09/30 06:59:27;;;;;;;;;;;;;;;25.65;42.11;93443.25;5003441;28;7166;-59
2022/09/30 07:02:12;;;;;;;;;;;;;;;25.66;41.11;93442.75;4991601;28;7025;-60
2022/09/30 07:04:39;;;;;;;;;;;;;;;25.67;41.96;93448.97;5011915;28;7446;-59
2022/09/30 07:07:21;;;;;;;;;;;;;;;25.68;41.54;93442.94;4997095;28;7307;-59
2022/09/30 07:09:51;;;;;;;;;;;;;;;25.68;41.28;93439.44;5030842;28;7521;-60
2022/09/30 07:12:21;;;;;;;;;;;;;;;25.70;42.02;93442.41;5045657;28;7240;-59
2022/09/30 07:15:20;;;;;;;;;;;;;;;25.71;42.04;93441.88;5076803;28;8802;-60
2022/09/30 07:18:21;;;;;;;;;;;;;;;25.72;41.43;93448.88;5021500;28;8475;-60
2022/09/30 07:20:51;;;;;;;;;;;;;;;25.72;41.88;93459.13;5003792;28;9303;-60
2022/09/30 07:23:18;;;;;;;;;;;;;;;25.72;41.93;93459.13;5030039;28;7400;-60
2022/09/30 07:25:57;;;;;;;;;;;;;;;25.69;41.90;93460.94;5015374;28;9163;-60
2022/09/30 07:28:30;;;;;;;;;;;;;;;25.70;41.52;93467.19;5018153;28;7216;-60
2022/09/30 07:31:05;;;;;;;;;;;;;;;25.70;41.44;93472.69;5010846;28;7231;-60
2022/09/30 07:33:34;;;;;;;;;;;;;;;25.68;42.04;93473.25;5018541;28;7238;-60
2022/09/30 07:36:06;;;;;;;;;;;;;;;25.68;41.17;93473.25;5011313;28;7044;-60
2022/09/30 07:38:36;;;;;;;;;;;;;;;25.67;41.48;93477.25;5025026;28;7011;-60
2022/09/30 07:41:18;;;;;;;;;;;;;;;25.65;41.95;93477.06;5025931;28;7237;-60
2022/09/30 07:43:55;;;;;;;;;;;;;;;25.65;42.24;93476.31;5025653;28;7185;-60
2022/09/30 07:46:50;;;;;;;;;;;;;;;25.61;41.63;93482.16;5027594;28;7648;-60
2022/09/30 07:49:26;;;;;;;;;;;;;;;25.61;41.80;93479.41;4938804;28;9022;-60
2022/09/30 07:51:55;;;;;;;;;;;;;;;25.60;41.59;93485.44;4949773;28;7457;-60
2022/09/30 07:54:33;;;;;;;;;;;;;;;25.57;41.78;93490.00;4956966;28;7318;-60
2022/09/30 07:57:29;;;;;;;;;;;;;;;25.56;42.06;93490.50;4946263;28;7643;-60
2022/09/30 07:59:55;;;;;;;;;;;;;;;25.54;41.71;93488.28;4948405;28;9440;-60
2022/09/30 08:02:23;;;;;;;;;;;;;;;25.54;41.55;93493.81;4945362;28;9400;-59
2022/09/30 08:04:50;;;;;;;;;;;;;;;25.51;42.05;93500.38;4952153;28;7676;-59
2022/09/30 08:07:17;;;;;;;;;;;;;;;25.50;41.69;93504.41;4961650;28;9193;-60
2022/09/30 08:10:12;;;;;;;;;;;;;;;25.50;41.86;93512.66;4953141;28;7312;-60
2022/09/30 08:12:49;;;;;;;;;;;;;;;25.48;41.96;93509.69;4939618;28;8987;-60
2022/09/30 08:15:16;;;;;;;;;;;;;;;25.46;42.29;93503.97;4928622;28;7219;-60
2022/09/30 08:17:43;;;;;;;;;;;;;;;25.46;42.20;93514.25;4935782;28;7216;-60
2022/09/30 08:20:28;;;;;;;;;;;;;;;25.42;42.32;93520.81;4949673;28;7569;-60
2022/09/30 08:22:55;;;;;;;;;;;;;;;25.42;42.00;93529.06;4928448;28;10700;-60
2022/09/30 08:25:26;;;;;;;;;;;;;;;25.41;42.84;93529.56;4953443;28;7349;-60
2022/09/30 08:27:53;;;;;;;;;;;;;;;25.39;42.28;93529.38;4960435;28;7243;-60
2022/09/30 08:30:21;;;;;;;;;;;;;;;25.38;42.21;93536.16;4964133;28;7287;-60
2022/09/30 08:32:49;;;;;;;;;;;;;;;25.37;42.42;93529.16;4950812;28;7013;-60
2022/09/30 08:35:25;;;;;;;;;;;;;;;25.37;42.59;93531.91;4968798;28;8966;-60
2022/09/30 08:37:59;;;;;;;;;;;;;;;25.33;42.47;93534.25;4996964;28;9408;-60
2022/09/30 08:40:55;;;;;;;;;;;;;;;25.32;42.96;93541.75;4984119;28;6986;-60
2022/09/30 08:43:53;;;;;;;;;;;;;;;25.31;43.25;93548.53;4992704;28;8011;-60
2022/09/30 08:47:02;;;;;;;;;;;;;;;25.32;43.10;93546.50;4981399;28;9146;-60
2022/09/30 08:50:00;;;;;;;;;;;;;;;25.30;42.71;93543.53;4919275;29;7003;-60
2022/09/30 08:53:12;;;;;;;;;;;;;;;25.32;43.61;93558.28;4915561;29;8871;-60
2022/09/30 08:55:44;;;;;;;;;;;;;;;25.30;43.12;93557.31;4928797;29;7148;-60
2022/09/30 08:58:32;;;;;;;;;;;;;;;25.33;43.07;93567.28;4926109;29;7290;-60
2022/09/30 09:01:23;;;;;;;;;;;;;;;25.30;42.93;93557.31;4914466;29;7365;-60
2022/09/30 09:04:02;;;;;;;;;;;;;;;25.29;42.90;93562.06;4930023;29;7235;-60
2022/09/30 09:06:49;;;;;;;;;;;;;;;25.29;42.87;93573.06;4909827;29;9310;-60
2022/09/30 09:09:50;;;;;;;;;;;;;;;25.29;43.03;93577.88;4928765;29;7057;-60
2022/09/30 09:12:53;;;;;;;;;;;;;;;25.26;43.19;93587.16;4919097;29;7350;-59
2022/09/30 09:16:03;;;;;;;;;;;;;;;25.25;42.74;93580.91;4924858;29;9238;-60
2022/09/30 09:18:54;;;;;;;;;;;;;;;25.28;43.45;93590.13;4870999;29;7221;-60
2022/09/30 09:21:30;;;;;;;;;;;;;;;25.27;43.55;93602.41;4892212;29;6963;-60
2022/09/30 09:24:29;;;;;;;;;;;;;;;25.25;43.07;93600.19;4917335;29;9088;-60
2022/09/30 09:27:00;;;;;;;;;;;;;;;25.24;43.45;93608.97;4914611;29;7539;-60
2022/09/30 09:30:09;;;;;;;;;;;;;;;25.25;42.63;93610.47;4931820;29;7281;-60
2022/09/30 09:32:37;;;;;;;;;;;;;;;25.24;43.27;93612.47;4924291;28;9606;-60
2022/09/30 09:35:22;;;;;;;;;;;;;;;25.24;43.20;93604.22;4973529;28;7096;-60
2022/09/30 09:38:39;;;;;;;;;;;;;;;25.25;42.55;93611.19;4980797;28;7356;-61
2022/09/30 09:41:23;;;;;;;;;;;;;;;25.24;43.64;93606.22;4943941;28;9033;-60
2022/09/30 09:43:57;;;;;;;;;;;;;;;25.22;43.51;93606.75;4970226;28;7212;-61
2022/09/30 09:46:40;;;;;;;;;;;;;;;25.23;43.12;93621.97;4972224;28;8479;-60
2022/09/30 09:49:12;;;;;;;;;;;;;;;25.21;42.69;93621.78;4976456;28;8482;-60
2022/09/30 09:51:53;;;;;;;;;;;;;;;25.21;43.37;93621.03;4979155;28;7649;-61
2022/09/30 09:54:29;;;;;;;;;;;;;;;25.21;44.06;93621.03;4988119;28;7008;-61
2022/09/30 09:57:31;;;;;;;;;;;;;;;25.21;43.18;93623.78;4998012;28;6981;-61
2022/09/30 10:01:07;;;;;;;;;;;;;;;25.23;43.43;93626.72;4931631;29;9333;-61
2022/09/30 10:02:57;;;;;;;;;;;;;;;25.22;43.71;93625.28;4924403;29;7128;-60
2022/09/30 10:05:31;;;;;;;;;;;;;;;25.22;43.56;93631.53;4926240;28;7151;-60
2022/09/30 10:08:21;;;;;;;;;;;;;;;25.25;43.75;93635.22;4954882;28;10493;-60
2022/09/30 10:11:02;;;;;;;;;;;;;;;25.24;43.24;93636.50;4982972;28;7845;-61
2022/09/30 10:13:43;;;;;;;;;;;;;;;25.23;44.07;93638.50;4963546;28;7256;-61
2022/09/30 10:16:36;;;;;;;;;;;;;;;25.22;44.81;93645.28;4978035;28;7048;-60
2022/09/30 10:19:40;;;;;;;;;;;;;;;25.22;45.38;93642.53;4955748;28;8019;-60
2022/09/30 10:22:36;;;;;;;;;;;;;;;25.25;44.65;93651.75;4965827;28;7403;-60
2022/09/30 10:25:27;;;;;;;;;;;;;;;25.26;45.49;93645.72;4967027;28;7240;-60
2022/09/30 10:27:58;;;;;;;;;;;;;;;25.25;45.05;93646.25;4970047;28;7328;-61
2022/09/30 10:30:44;;;;;;;;;;;;;;;25.24;44.83;93642.75;4955949;28;7176;-60
2022/09/30 10:33:27;;;;;;;;;;;;;;;25.26;45.04;93640.22;4957521;28;9235;-60
2022/09/30 10:36:02;;;;;;;;;;;;;;;25.25;45.20;93643.50;5024908;28;9375;-60
2022/09/30 10:38:31;;;;;;;;;;;;;;;25.28;44.62;93648.69;5046038;28;7234;-61
2022/09/30 10:41:00;;;;;;;;;;;;;;;25.28;45.07;93648.69;5050695;28;7457;-60
2022/09/30 10:43:46;;;;;;;;;;;;;;;25.27;45.32;93654.72;5066854;28;7214;-61
2022/09/30 10:46:25;;;;;;;;;;;;;;;25.28;45.32;93658.94;5075060;28;6944;-61
2022/09/30 10:48:53;;;;;;;;;;;;;;;25.28;45.02;93656.94;5054901;28;7096;-61
2022/09/30 10:51:35;;;;;;;;;;;;;;;25.29;44.48;93658.41;5056345;28;7002;-61
2022/09/30 10:54:03;;;;;;;;;;;;;;;25.28;44.88;93658.94;5055560;28;6996;-60
2022/09/30 10:56:42;;;;;;;;;;;;;;;25.27;44.11;93657.47;5044332;28;10298;-60
2022/09/30 10:59:33;;;;;;;;;;;;;;;25.26;44.67;93664.22;5039997;28;7549;-61
2022/09/30 11:02:23;;;;;;;;;;;;;;;25.26;44.87;93661.47;5043662;28;7207;-60
2022/09/30 11:05:17;;;;;;;;;;;;;;;25.25;45.32;93666.22;5049427;28;7071;-60
2022/09/30 11:07:58;;;;;;;;;;;;;;;25.25;44.47;93666.22;5056501;28;7278;-60
2022/09/30 11:10:35;;;;;;;;;;;;;;;25.29;45.14;93669.41;5051699;28;7240;-61
2022/09/30 11:13:29;;;;;;;;;;;;;;;25.27;44.79;93663.69;5075865;28;7011;-61
2022/09/30 11:16:03;;;;;;;;;;;;;;;25.25;44.65;93662.75;5079568;28;7332;-61
2022/09/30 11:19:00;;;;;;;;;;;;;;;25.27;44.84;93663.69;5065904;28;7266;-61
2022/09/30 11:22:10;;;;;;;;;;;;;;;25.26;43.84;93669.72;5019897;28;6990;-60
2022/09/30 11:25:02;;;;;;;;;;;;;;;25.25;44.89;93673.75;5020104;28;7334;-60
2022/09/30 11:27:51;;;;;;;;;;;;;;;25.23;43.93;93668.75;5035767;28;10497;-61
2022/09/30 11:30:25;;;;;;;;;;;;;;;25.24;43.93;93672.28;5014674;28;7199;-60
2022/09/30 11:33:34;;;;;;;;;;;;;;;25.22;44.02;93678.31;5019590;28;9210;-60
2022/09/30 11:36:17;;;;;;;;;;;;;;;25.22;44.34;93683.81;5018434;28;7489;-60
2022/09/30 11:39:02;;;;;;;;;;;;;;;25.22;44.14;93696.81;5030162;28;9466;-60
2022/09/30 11:41:39;;;;;;;;;;;;;;;25.20;44.91;93696.59;5023088;28;7171;-60
2022/09/30 11:44:08;;;;;;;;;;;;;;;25.21;44.33;93692.56;5014270;28;7206;-60
2022/09/30 11:46:49;;;;;;;;;;;;;;;25.19;44.78;93695.84;5019608;28;7280;-60
2022/09/30 11:49:48;;;;;;;;;;;;;;;25.18;44.77;93699.13;5017710;28;7236;-60
2022/09/30 11:52:31;;;;;;;;;;;;;;;25.19;44.30;93695.09;5036161;28;7065;-60
2022/09/30 11:55:34;;;;;;;;;;;;;;;25.17;44.38;93692.13;5028916;28;7347;-60
2022/09/30 11:58:10;;;;;;;;;;;;;;;25.14;44.08;93690.47;5037435;28;7136;-60
2022/09/30 12:00:43;;;;;;;;;;;;;;;25.14;44.40;93691.19;5050677;28;7694;-60
2022/09/30 12:03:39;;;;;;;;;;;;;;;25.14;44.17;93690.47;5056241;28;6982;-60
2022/09/30 12:06:32;;;;;;;;;;;;;;;25.16;44.40;93691.41;5059086;28;8360;-60
2022/09/30 12:09:28;;;;;;;;;;;;;;;25.15;44.29;93684.41;5066786;28;7378;-60
2022/09/30 12:12:16;;;;;;;;;;;;;;;25.15;43.95;93692.69;5055581;28;9036;-60
2022/09/30 12:14:59;;;;;;;;;;;;;;;25.12;44.84;93690.25;5045289;28;8491;-60
2022/09/30 12:17:37;;;;;;;;;;;;;;;25.12;44.16;93699.22;5058730;28;10687;-60
2022/09/30 12:20:31;;;;;;;;;;;;;;;25.14;44.32;93693.22;5044627;28;7258;-60
2022/09/30 12:23:21;;;;;;;;;;;;;;;25.10;44.91;93698.28;5043013;28;7250;-60
2022/09/30 12:25:59;;;;;;;;;;;;;;;25.15;44.55;93702.94;5049833;28;9235;-60
2022/09/30 12:31:37;;;;;;;;;;;;;;;25.11;44.09;93695.00;5053608;28;7233;-60
2022/09/30 12:34:41;;;;;;;;;;;;;;;25.12;44.73;93710.22;5068791;28;9149;-60
2022/09/30 12:37:26;;;;;;;;;;;;;;;25.11;44.99;93697.75;5075210;28;7295;-60
2022/09/30 12:40:19;;;;;;;;;;;;;;;25.12;44.34;93701.25;5064146;28;7234;-60
2022/09/30 12:43:14;;;;;;;;;;;;;;;25.11;44.69;93700.50;5051651;28;9311;-60
2022/09/30 12:46:09;;;;;;;;;;;;;;;25.09;44.32;93705.78;5070763;28;8375;-60
2022/09/30 12:48:48;;;;;;;;;;;;;;;25.10;44.04;93701.03;5045359;28;7363;-60
2022/09/30 12:51:21;;;;;;;;;;;;;;;25.10;44.30;93701.03;5052312;28;7311;-60
2022/09/30 12:53:58;;;;;;;;;;;;;;;25.08;44.68;93701.53;5076146;28;8241;-60
2022/09/30 12:56:36;;;;;;;;;;;;;;;25.10;44.70;93699.00;5043740;28;7409;-60
2022/09/30 12:59:07;;;;;;;;;;;;;;;25.10;44.38;93698.28;5066296;28;8708;-60
2022/09/30 13:01:40;;;;;;;;;;;;;;;25.11;44.54;93689.50;5053411;28;7000;-60
2022/09/30 13:04:07;;;;;;;;;;;;;;;25.10;44.83;93687.28;5057712;28;9995;-60
2022/09/30 13:06:45;;;;;;;;;;;;;;;25.10;44.32;93687.28;5077046;28;9133;-60
2022/09/30 13:09:59;;;;;;;;;;;;;;;25.10;44.26;93688.00;5079388;28;9122;-60
2022/09/30 13:13:07;;;;;;;;;;;;;;;25.10;44.25;93701.03;4980165;28;9150;-60
2022/09/30 13:15:37;;;;;;;;;;;;;;;25.10;43.86;93706.53;4985873;28;7271;-61
2022/09/30 13:18:31;;;;;;;;;;;;;;;25.10;44.25;93706.53;4989123;28;7100;-60
2022/09/30 13:21:10;;;;;;;;;;;;;;;25.11;44.15;93702.50;4983800;28;7450;-60
2022/09/30 13:23:56;;;;;;;;;;;;;;;25.10;44.51;93703.78;4972312;28;7788;-60
2022/09/30 13:26:37;;;;;;;;;;;;;;;25.11;44.72;93705.25;4967978;28;9036;-60
2022/09/30 13:29:18;;;;;;;;;;;;;;;25.09;45.01;93708.53;4971715;28;7245;-60
2022/09/30 13:31:44;;;;;;;;;;;;;;;25.11;44.05;93705.25;4987732;28;7559;-60
2022/09/30 13:34:23;;;;;;;;;;;;;;;25.10;44.32;93706.53;4966328;28;9692;-60
2022/09/30 13:36:50;;;;;;;;;;;;;;;25.10;44.50;93723.75;4972167;28;9031;-61
2022/09/30 13:39:34;;;;;;;;;;;;;;;25.14;44.29;93713.19;4984811;28;7288;-60
2022/09/30 13:42:16;;;;;;;;;;;;;;;25.15;44.84;93714.69;4983032;28;7796;-60
2022/09/30 13:45:07;;;;;;;;;;;;;;;25.12;44.02;93712.97;4966574;28;6899;-60
2022/09/30 13:47:50;;;;;;;;;;;;;;;25.12;43.81;93707.47;4964277;28;8773;-60
2022/09/30 13:50:30;;;;;;;;;;;;;;;25.11;44.20;93699.75;5070214;28;7210;-60
2022/09/30 13:53:05;;;;;;;;;;;;;;;25.11;43.70;93697.00;5053866;28;7326;-60
2022/09/30 13:55:44;;;;;;;;;;;;;;;25.09;44.31;93694.78;5053351;28;7098;-60
2022/09/30 13:58:29;;;;;;;;;;;;;;;25.10;44.66;93688.00;5057179;28;7248;-60
2022/09/30 14:01:35;;;;;;;;;;;;;;;25.12;44.84;93695.75;5079565;28;8099;-60
2022/09/30 14:04:20;;;;;;;;;;;;;;;25.13;44.58;93708.22;5078714;28;7560;-59
2022/09/30 14:07:06;;;;;;;;;;;;;;;25.12;43.79;93704.72;5052013;28;7228;-60
2022/09/30 14:10:10;;;;;;;;;;;;;;;25.12;43.74;93710.22;5071339;28;8677;-61
2022/09/30 14:12:47;;;;;;;;;;;;;;;25.14;44.16;93715.22;5078543;28;7845;-60